White Hall, Illinois
Current Conditions -  °F | °C
As of 11:15 PM on Friday 28 Nov 2014 (Local Time) from KIJX Reporting Station
Clear Clear  
Wind Chill: 34°   Ceiling: Unl
Heat Index: 40°   Visibility: 10mi
Dew Point: 34°   Wind: 10mph
Humidity: 78%   Direction: 170°S
Pressure: 29.84"   Gusts: NA
Location:  39.44°N, 90.4°W
Report Text: KIJX 290515Z AUTO 17009KT 10SM CLR 05/01 A2984 RMK AO2 T00470012
Loading
Personal Weather Stations






























Interactive Weather Map New forecast layout! Learn more

10-Day Weather Forecast

Advertisements
Track Severe Weather on mobile